London, West Virginia
Current Conditions -  °F | °C
As of 7:54 PM on Friday 24 Oct 2014 (Local Time) from KCRW Reporting Station
Clear Clear  
Wind Chill: 52°   Ceiling: Unl
Heat Index: 52°   Visibility: 10mi
Dew Point: 43°   Wind: 0mph
Humidity: 71%   Direction: NA
Pressure: 30.05"   Gusts: NA
Location:  38.19°N, 81.37°W
Report Text: KCRW 242354Z 00000KT 10SM CLR 11/06 A3005 RMK AO2 SLP178 T01110061 10172 20106 53003
Loading
Personal Weather Stations






























Interactive Weather Map
Tropical Storm Tracking
New forecast layout! Learn more

10-Day Weather Forecast

Advertisements
Track Severe Weather on mobile